createdAt,value
2023-04-15T00:01:06.580Z,49727.00
2023-04-15T00:03:34.647Z,49727.00
2023-04-15T00:06:02.652Z,49734.97
2023-04-15T00:08:30.144Z,49744.94
2023-04-15T00:10:56.924Z,49709.06
2023-04-15T00:13:23.745Z,49750.94
2023-04-15T00:15:50.388Z,49711.06
2023-04-15T00:18:17.073Z,49717.03
2023-04-15T00:20:43.723Z,49719.03
2023-04-15T00:23:10.408Z,49744.94
2023-04-15T00:25:37.043Z,49756.91
2023-04-15T00:28:04.095Z,49705.06
2023-04-15T00:30:31.487Z,49764.88
2023-04-15T00:32:58.546Z,49731.00
2023-04-15T00:35:25.657Z,49723.03
2023-04-15T00:37:52.700Z,49687.13
2023-04-15T00:40:21.024Z,49731.00
2023-04-15T00:42:48.121Z,49734.97
2023-04-15T00:45:15.701Z,49725.00
2023-04-15T00:47:43.673Z,49734.97
2023-04-15T00:50:12.613Z,49719.03
2023-04-15T00:52:40.633Z,49760.91
2023-04-15T00:55:08.783Z,49736.97
2023-04-15T00:57:36.520Z,49748.94
2023-04-15T01:00:05.737Z,49725.00
2023-04-15T01:02:33.456Z,49715.03
2023-04-15T01:05:02.314Z,49736.97
2023-04-15T01:07:28.994Z,49750.94
2023-04-15T01:09:55.730Z,49713.06
2023-04-15T01:12:23.270Z,49750.94
2023-04-15T01:14:50.035Z,49729.00
2023-04-15T01:17:17.759Z,49742.94
2023-04-15T01:19:44.422Z,49754.91
2023-04-15T01:22:11.383Z,49744.94
2023-04-15T01:24:38.572Z,49740.97
2023-04-15T01:27:05.597Z,49707.06
2023-04-15T01:29:35.349Z,49729.00
2023-04-15T01:32:02.124Z,49711.06
2023-04-15T01:34:28.836Z,49717.03
2023-04-15T01:36:55.634Z,49729.00
2023-04-15T01:39:22.676Z,49734.97
2023-04-15T01:41:49.316Z,49687.13
2023-04-15T01:44:16.476Z,49703.09
2023-04-15T01:46:43.202Z,49731.00
2023-04-15T01:49:09.982Z,49723.03
2023-04-15T01:51:36.669Z,49748.94
2023-04-15T01:54:04.112Z,49738.97
2023-04-15T01:56:30.855Z,49729.00
2023-04-15T01:58:57.662Z,49731.00
2023-04-15T02:01:25.005Z,49729.00
2023-04-15T02:03:52.249Z,49736.97
2023-04-15T02:06:19.362Z,49679.16
2023-04-15T02:08:46.161Z,49675.19
2023-04-15T02:11:12.922Z,49734.97
2023-04-15T02:13:39.619Z,49727.00
2023-04-15T02:16:18.776Z,49721.03
2023-04-15T02:18:47.066Z,49746.94
2023-04-15T02:21:14.138Z,49744.94
2023-04-15T02:23:41.119Z,49715.03
2023-04-15T02:26:08.203Z,49750.94
2023-04-15T02:28:35.158Z,49715.03
2023-04-15T02:31:06.599Z,49758.91
2023-04-15T02:33:33.498Z,49705.06
2023-04-15T02:36:01.075Z,49736.97
2023-04-15T02:38:28.511Z,49713.06
2023-04-15T02:40:55.517Z,49748.94
2023-04-15T02:43:22.348Z,49719.03
2023-04-15T02:45:51.374Z,49717.03
2023-04-15T02:48:20.286Z,49713.06
2023-04-15T02:50:47.976Z,49715.03
2023-04-15T02:53:16.174Z,49733.00
2023-04-15T02:55:43.022Z,49727.00
2023-04-15T02:58:09.895Z,49734.97
2023-04-15T03:00:36.786Z,49736.97
2023-04-15T03:03:06.149Z,49727.00
2023-04-15T03:05:33.268Z,49719.03
2023-04-15T03:08:01.412Z,49734.97
2023-04-15T03:10:28.578Z,49750.94
2023-04-15T03:12:55.671Z,49738.97
2023-04-15T03:15:23.876Z,49731.00
2023-04-15T03:17:52.926Z,49752.91
2023-04-15T03:20:19.895Z,49719.03
2023-04-15T03:22:47.999Z,49709.06
2023-04-15T03:25:14.838Z,49742.94
2023-04-15T03:27:42.035Z,49707.06
2023-04-15T03:30:09.538Z,49736.97
2023-04-15T03:32:38.318Z,49738.97
2023-04-15T03:35:06.787Z,49740.97
2023-04-15T03:37:33.469Z,49715.03
2023-04-15T03:40:00.183Z,49731.00
2023-04-15T03:42:27.087Z,49723.03
2023-04-15T03:44:53.933Z,49727.00
2023-04-15T03:47:21.012Z,49729.00
2023-04-15T03:49:47.670Z,49727.00
2023-04-15T03:52:14.393Z,49742.94
2023-04-15T03:54:41.097Z,49733.00
2023-04-15T03:57:07.717Z,49713.06
2023-04-15T03:59:34.381Z,49709.06
2023-04-15T04:02:01.332Z,49717.03
2023-04-15T04:04:28.212Z,49727.00
2023-04-15T04:06:54.960Z,49780.84
2023-04-15T04:09:21.749Z,49733.00
2023-04-15T04:11:48.402Z,49731.00
2023-04-15T04:14:15.185Z,49731.00
2023-04-15T04:16:42.129Z,49762.88
2023-04-15T04:19:08.842Z,49740.97
2023-04-15T04:21:36.542Z,49717.03
2023-04-15T04:24:03.353Z,49736.97
2023-04-15T04:26:30.120Z,49731.00
2023-04-15T04:28:56.745Z,49738.97
2023-04-15T04:31:23.461Z,49756.91
2023-04-15T04:33:50.147Z,49746.94
2023-04-15T04:36:17.043Z,49748.94
2023-04-15T04:38:43.708Z,49719.03
2023-04-15T04:41:10.640Z,49721.03
2023-04-15T04:43:37.332Z,49742.94
2023-04-15T04:46:04.097Z,49742.94
2023-04-15T04:48:30.856Z,49734.97
2023-04-15T04:50:57.691Z,49754.91
2023-04-15T04:53:24.313Z,49786.81
2023-04-15T04:55:51.242Z,49754.91
2023-04-15T04:58:17.898Z,49742.94
2023-04-15T05:00:44.845Z,49754.91
2023-04-15T05:03:11.699Z,49740.97
2023-04-15T05:05:41.082Z,49744.94
2023-04-15T05:08:08.005Z,49748.94
2023-04-15T05:10:34.731Z,49760.91
2023-04-15T05:13:01.423Z,49746.94
2023-04-15T05:15:28.182Z,49776.84
2023-04-15T05:17:55.229Z,49754.91
2023-04-15T05:20:21.975Z,49746.94
2023-04-15T05:22:48.734Z,49746.94
2023-04-15T05:25:15.467Z,49736.97
2023-04-15T05:27:42.274Z,49744.94
2023-04-15T05:30:10.625Z,49725.00
2023-04-15T05:32:38.324Z,49748.94
2023-04-15T05:35:05.706Z,49750.94
2023-04-15T05:37:32.330Z,49723.03
2023-04-15T05:39:59.040Z,49746.94
2023-04-15T05:42:25.996Z,49738.97
2023-04-15T05:44:52.775Z,49752.91
2023-04-15T05:47:19.461Z,49731.00
2023-04-15T05:49:46.466Z,49723.03
2023-04-15T05:52:13.147Z,49711.06
2023-04-15T05:54:39.811Z,49703.09
2023-04-15T05:57:06.542Z,49725.00
2023-04-15T05:59:33.245Z,49711.06
2023-04-15T06:02:00.066Z,49746.94
2023-04-15T06:04:26.967Z,49721.03
2023-04-15T06:06:53.629Z,49750.94
2023-04-15T06:09:20.327Z,49756.91
2023-04-15T06:11:47.417Z,49746.94
2023-04-15T06:14:14.095Z,49687.13
2023-04-15T06:16:40.856Z,49719.03
2023-04-15T06:19:07.676Z,49725.00
2023-04-15T06:21:34.418Z,49707.06
2023-04-15T06:24:04.002Z,49742.94
2023-04-15T06:26:31.252Z,49719.03
2023-04-15T06:28:57.868Z,49693.13
2023-04-15T06:31:24.595Z,49748.94
2023-04-15T06:33:51.380Z,49709.06
2023-04-15T06:36:18.168Z,49703.09
2023-04-15T06:38:44.866Z,49731.00
2023-04-15T06:41:11.662Z,49695.09
2023-04-15T06:43:39.137Z,49707.06
2023-04-15T06:46:05.913Z,49740.97
2023-04-15T06:48:32.568Z,49733.00
2023-04-15T06:50:59.348Z,49740.97
2023-04-15T06:53:28.083Z,49715.03
2023-04-15T06:55:55.077Z,49715.03
2023-04-15T06:58:22.069Z,49707.06
2023-04-15T07:00:49.245Z,49691.13
2023-04-15T07:03:16.346Z,49711.06
2023-04-15T07:05:43.568Z,49707.06
2023-04-15T07:08:10.431Z,49731.00
2023-04-15T07:10:37.177Z,49727.00
2023-04-15T07:13:04.519Z,49731.00
2023-04-15T07:15:31.311Z,49725.00
2023-04-15T07:17:58.213Z,49731.00
2023-04-15T07:20:25.015Z,49733.00
2023-04-15T07:22:51.827Z,49717.03
2023-04-15T07:25:19.066Z,49707.06
2023-04-15T07:27:45.930Z,49693.13
2023-04-15T07:30:13.261Z,49697.09
2023-04-15T07:32:40.549Z,49673.19
2023-04-15T07:35:07.887Z,49673.19
2023-04-15T07:37:34.628Z,49703.09
2023-04-15T07:40:01.951Z,49703.09
2023-04-15T07:42:29.379Z,49703.09
2023-04-15T07:44:56.929Z,49705.06
2023-04-15T07:47:23.675Z,49705.06
2023-04-15T07:49:51.551Z,49679.16
2023-04-15T07:55:15.356Z,49675.19
2023-04-15T07:57:42.096Z,49675.19
2023-04-15T08:00:09.753Z,49703.09
2023-04-15T08:02:43.472Z,49665.22
2023-04-15T08:05:10.780Z,49727.00
2023-04-15T08:07:38.511Z,49713.06
2023-04-15T08:10:06.430Z,49719.03
2023-04-15T08:12:33.150Z,49669.19
2023-04-15T08:15:00.828Z,49657.22
2023-04-15T08:17:28.307Z,49691.13
2023-04-15T08:19:55.147Z,49687.13
2023-04-15T08:22:22.413Z,49699.09
2023-04-15T08:24:49.171Z,49675.19
2023-04-15T08:27:15.974Z,49677.16
2023-04-15T08:29:42.668Z,49659.22
2023-04-15T08:32:09.656Z,49711.06
2023-04-15T08:34:36.421Z,49673.19
2023-04-15T08:37:03.197Z,49687.13
2023-04-15T08:39:29.876Z,49689.13
2023-04-15T08:41:59.089Z,49661.22
2023-04-15T08:44:28.867Z,49661.22
2023-04-15T08:46:57.396Z,49679.16
2023-04-15T08:49:27.173Z,49681.16
2023-04-15T08:51:55.197Z,49711.06
2023-04-15T08:54:21.794Z,49683.16
2023-04-15T08:56:48.999Z,49689.13
2023-04-15T08:59:16.625Z,49705.06
2023-04-15T09:01:43.789Z,49691.13
2023-04-15T09:04:12.587Z,49673.19
2023-04-15T09:06:41.077Z,49663.22
2023-04-15T09:09:08.084Z,49683.16
2023-04-15T09:11:34.916Z,49667.19
2023-04-15T09:14:01.815Z,49643.28
2023-04-15T09:16:28.521Z,49657.22
2023-04-15T09:18:55.209Z,49627.31
2023-04-15T09:21:23.580Z,49689.13
2023-04-15T09:23:57.226Z,49661.22
2023-04-15T09:26:38.562Z,49669.19
2023-04-15T09:29:07.949Z,49669.19
2023-04-15T09:31:36.807Z,49665.22
2023-04-15T09:34:03.709Z,49659.22
2023-04-15T09:36:56.405Z,49613.38
2023-04-15T09:39:23.116Z,49657.22
2023-04-15T09:42:08.354Z,49645.28
2023-04-15T09:44:35.293Z,49639.28
2023-04-15T09:47:02.365Z,49657.22
2023-04-15T09:49:29.319Z,49611.38
2023-04-15T09:52:05.786Z,49643.28
2023-04-15T09:54:38.014Z,49639.28
2023-04-15T09:57:10.373Z,49713.06
2023-04-15T09:59:37.395Z,49655.25
2023-04-15T10:02:06.577Z,49643.28
2023-04-15T10:04:36.751Z,49639.28
2023-04-15T10:07:05.124Z,49625.34
2023-04-15T10:09:33.687Z,49665.22
2023-04-15T10:12:01.215Z,49647.25
2023-04-15T10:14:30.795Z,49647.25
2023-04-15T10:17:00.113Z,49647.25
2023-04-15T10:19:28.109Z,49635.31
2023-04-15T10:21:56.116Z,49639.28
2023-04-15T10:24:24.197Z,49623.34
2023-04-15T10:26:52.812Z,49673.19
2023-04-15T10:29:20.655Z,49637.28
2023-04-15T10:31:48.459Z,49627.31
2023-04-15T10:34:16.331Z,49635.31
2023-04-15T10:36:43.202Z,49651.25
2023-04-15T10:39:45.277Z,49631.31
2023-04-15T10:42:15.396Z,49631.31
2023-04-15T10:44:45.648Z,49643.28
2023-04-15T10:47:15.478Z,49667.19
2023-04-15T10:49:57.119Z,49597.44
2023-04-15T10:52:26.158Z,49629.31
2023-04-15T10:55:14.738Z,49633.31
2023-04-15T10:57:43.178Z,49593.44
2023-04-15T11:00:14.740Z,49631.31
2023-04-15T11:02:59.047Z,49623.34
2023-04-15T11:05:53.670Z,49599.41
2023-04-15T11:08:41.007Z,49615.38
2023-04-15T11:11:07.761Z,49647.25
2023-04-15T11:13:34.448Z,49643.28
2023-04-15T11:16:02.564Z,49623.34
2023-04-15T11:18:30.961Z,49619.34
2023-04-15T11:21:00.345Z,49623.34
2023-04-15T11:23:32.699Z,49619.34
2023-04-15T11:26:00.955Z,49631.31
2023-04-15T11:28:31.484Z,49587.47
2023-04-15T11:30:59.235Z,49603.41
2023-04-15T11:33:26.083Z,49595.44
2023-04-15T11:35:54.949Z,49607.41
2023-04-15T11:38:22.397Z,49599.41
2023-04-15T11:40:51.033Z,49639.28
2023-04-15T11:43:23.079Z,49593.44
2023-04-15T11:45:53.077Z,49597.44
2023-04-15T11:48:21.879Z,49591.44
2023-04-15T11:50:57.285Z,49651.25
2023-04-15T11:53:25.441Z,49583.47
2023-04-15T11:55:54.044Z,49555.56
2023-04-15T11:58:23.371Z,49559.56
2023-04-15T12:00:58.858Z,49615.38
2023-04-15T12:03:31.095Z,49611.38
2023-04-15T12:06:24.477Z,49611.38
2023-04-15T12:08:57.236Z,49581.47
2023-04-15T12:11:26.721Z,49583.47
2023-04-15T12:13:56.714Z,49627.31
2023-04-15T12:16:24.758Z,49567.53
2023-04-15T12:18:53.437Z,49617.38
2023-04-15T12:21:21.065Z,49583.47
2023-04-15T12:23:56.022Z,49575.50
2023-04-15T12:26:50.503Z,49615.38
2023-04-15T12:29:18.222Z,49605.41
2023-04-15T12:31:59.471Z,49583.47
2023-04-15T12:34:33.964Z,49631.31
2023-04-15T12:37:02.521Z,49635.31
2023-04-15T12:39:32.710Z,49603.41
2023-04-15T12:42:00.462Z,49589.44
2023-04-15T12:44:28.518Z,49605.41
2023-04-15T12:46:55.415Z,49607.41
2023-04-15T12:49:23.081Z,49595.44
2023-04-15T12:51:54.227Z,49595.44
2023-04-15T12:54:21.655Z,49595.44
2023-04-15T12:56:50.016Z,49591.44
2023-04-15T12:59:21.125Z,49629.31
2023-04-15T13:01:49.039Z,49585.47
2023-04-15T13:04:16.468Z,49599.41
2023-04-15T13:06:44.129Z,49609.38
2023-04-15T13:09:10.833Z,49569.50
2023-04-15T13:11:37.653Z,49589.44
2023-04-15T13:14:07.006Z,49549.59
2023-04-15T13:16:34.656Z,49617.38
2023-04-15T13:19:02.654Z,49599.41
2023-04-15T13:21:29.552Z,49551.56
2023-04-15T13:23:56.208Z,49585.47
2023-04-15T13:26:22.864Z,49583.47
2023-04-15T13:28:49.613Z,49575.50
2023-04-15T13:31:16.423Z,49605.41
2023-04-15T13:33:43.124Z,49603.41
2023-04-15T13:36:09.880Z,49545.59
2023-04-15T13:38:36.613Z,49523.66
2023-04-15T13:41:03.849Z,49539.63
2023-04-15T13:43:30.622Z,49547.59
2023-04-15T13:45:57.397Z,49559.56
2023-04-15T13:48:24.120Z,49543.59
2023-04-15T13:50:50.989Z,49567.53
2023-04-15T13:53:17.676Z,49531.63
2023-04-15T13:55:44.461Z,49583.47
2023-04-15T13:58:11.601Z,49495.75
2023-04-15T14:00:38.456Z,49523.66
2023-04-15T14:03:05.381Z,49543.59
2023-04-15T14:05:32.938Z,49545.59
2023-04-15T14:08:00.579Z,49553.56
2023-04-15T14:10:27.281Z,49579.47
2023-04-15T14:12:54.157Z,49555.56
2023-04-15T14:15:21.805Z,49603.41
2023-04-15T14:17:48.646Z,49567.53
2023-04-15T14:20:17.187Z,49563.53
2023-04-15T14:22:44.239Z,49509.72
2023-04-15T14:25:15.127Z,49523.66
2023-04-15T14:27:50.079Z,49527.66
2023-04-15T14:30:17.593Z,49491.78
2023-04-15T14:32:44.375Z,49517.69
2023-04-15T14:35:11.326Z,49541.59
2023-04-15T14:37:38.140Z,49521.69
2023-04-15T14:40:05.280Z,49521.69
2023-04-15T14:42:31.952Z,49533.63
2023-04-15T14:44:58.769Z,49515.69
2023-04-15T14:47:25.825Z,49527.66
2023-04-15T14:49:52.600Z,49581.47
2023-04-15T14:52:19.305Z,49525.66
2023-04-15T14:54:45.961Z,49499.75
2023-04-15T14:57:12.609Z,49517.69
2023-04-15T14:59:39.222Z,49481.81
2023-04-15T15:02:06.122Z,49523.66
2023-04-15T15:04:33.550Z,49533.63
2023-04-15T15:07:00.758Z,49503.72
2023-04-15T15:09:27.626Z,49521.69
2023-04-15T15:11:54.330Z,49503.72
2023-04-15T15:14:21.780Z,49507.72
2023-04-15T15:16:48.730Z,49491.78
2023-04-15T15:19:15.391Z,49533.63
2023-04-15T15:21:42.101Z,49515.69
2023-04-15T15:24:08.796Z,49473.84
2023-04-15T15:26:35.494Z,49483.81
2023-04-15T15:29:02.486Z,49477.81
2023-04-15T15:31:29.306Z,49485.78
2023-04-15T15:33:56.098Z,49465.84
2023-04-15T15:36:22.931Z,49513.69
2023-04-15T15:38:49.618Z,49541.59
2023-04-15T15:41:16.350Z,49475.81
2023-04-15T15:43:43.000Z,49503.72
2023-04-15T15:46:09.816Z,49495.75
2023-04-15T15:48:36.834Z,49535.63
2023-04-15T15:51:04.267Z,49551.56
2023-04-15T15:53:31.186Z,49559.56
2023-04-15T15:55:58.052Z,49515.69
2023-04-15T15:58:24.782Z,49543.59
2023-04-15T16:00:51.454Z,49527.66
2023-04-15T16:03:18.573Z,49487.78
2023-04-15T16:05:46.043Z,49471.84
2023-04-15T16:08:12.702Z,49457.88
2023-04-15T16:10:39.468Z,49493.75
2023-04-15T16:13:06.205Z,49487.78
2023-04-15T16:15:33.072Z,49493.75
2023-04-15T16:18:00.115Z,49579.47
2023-04-15T16:20:28.420Z,49555.56
2023-04-15T16:22:58.619Z,49519.69
2023-04-15T16:25:25.740Z,49501.75
2023-04-15T16:28:01.299Z,49535.63
2023-04-15T16:30:34.979Z,49527.66
2023-04-15T16:33:01.885Z,49529.66
2023-04-15T16:35:28.730Z,49523.66
2023-04-15T16:37:55.531Z,49495.75
2023-04-15T16:40:22.223Z,49483.81
2023-04-15T16:42:50.276Z,49515.69
2023-04-15T16:45:17.184Z,49499.75
2023-04-15T16:47:44.002Z,49561.53
2023-04-15T16:50:11.170Z,49561.53
2023-04-15T16:52:37.891Z,49515.69
2023-04-15T16:55:05.203Z,49551.56
2023-04-15T16:57:50.798Z,49525.66
2023-04-15T17:00:18.599Z,49569.50
2023-04-15T17:02:45.528Z,49591.44
2023-04-15T17:05:12.342Z,49587.47
2023-04-15T17:07:39.015Z,49557.56
2023-04-15T17:10:06.170Z,49559.56
2023-04-15T17:12:32.887Z,49497.75
2023-04-15T17:14:59.570Z,49535.63
2023-04-15T17:17:26.291Z,49547.59
2023-04-15T17:19:52.992Z,49535.63
2023-04-15T17:22:19.713Z,49513.69
2023-04-15T17:24:46.351Z,49507.72
2023-04-15T17:27:13.066Z,49575.50
2023-04-15T17:29:39.693Z,49515.69
2023-04-15T17:32:06.437Z,49529.66
2023-04-15T17:34:49.475Z,49499.75
2023-04-15T17:37:18.458Z,49547.59
2023-04-15T17:39:45.410Z,49583.47
2023-04-15T17:42:12.503Z,49593.44
2023-04-15T17:44:39.977Z,49643.28
2023-04-15T17:47:07.279Z,49639.28
2023-04-15T17:49:34.345Z,49623.34
2023-04-15T17:52:01.331Z,49681.16
2023-04-15T17:54:28.259Z,49611.38
2023-04-15T17:56:56.637Z,49619.34
2023-04-15T17:59:23.642Z,49643.28
2023-04-15T18:01:50.644Z,49629.31
2023-04-15T18:04:17.584Z,49637.28
2023-04-15T18:06:44.424Z,49663.22
2023-04-15T18:09:11.450Z,49655.25
2023-04-15T18:11:40.045Z,49653.25
2023-04-15T18:14:07.217Z,49685.13
2023-04-15T18:16:34.373Z,49661.22
2023-04-15T18:19:01.861Z,49645.28
2023-04-15T18:21:28.537Z,49687.13
2023-04-15T18:23:55.346Z,49661.22
2023-04-15T18:26:22.092Z,49667.19
2023-04-15T18:28:48.851Z,49629.31
2023-04-15T18:31:15.695Z,49655.25
2023-04-15T18:33:42.458Z,49689.13
2023-04-15T18:36:10.396Z,49673.19
2023-04-15T18:38:37.053Z,49671.19
2023-04-15T18:41:05.491Z,49639.28
2023-04-15T18:43:32.522Z,49665.22
2023-04-15T18:46:00.056Z,49651.25
2023-04-15T18:48:27.095Z,49685.13
2023-04-15T18:50:54.037Z,49695.09
2023-04-15T18:53:21.623Z,49665.22
2023-04-15T18:55:48.446Z,49655.25
2023-04-15T18:58:15.616Z,49675.19
2023-04-15T19:00:43.815Z,49681.16
2023-04-15T19:03:11.600Z,49661.22
2023-04-15T19:05:38.435Z,49671.19
2023-04-15T19:08:05.434Z,49663.22
2023-04-15T19:10:32.144Z,49697.09
2023-04-15T19:12:58.807Z,49639.28
2023-04-15T19:15:25.519Z,49675.19
2023-04-15T19:17:52.221Z,49675.19
2023-04-15T19:20:18.933Z,49661.22
2023-04-15T19:22:46.172Z,49661.22
2023-04-15T19:25:13.204Z,49655.25
2023-04-15T19:27:39.912Z,49679.16
2023-04-15T19:30:07.913Z,49707.06
2023-04-15T19:32:35.555Z,49703.09
2023-04-15T19:35:02.264Z,49679.16
2023-04-15T19:37:29.008Z,49667.19
2023-04-15T19:39:56.161Z,49647.25
2023-04-15T19:42:22.864Z,49667.19
2023-04-15T19:44:49.572Z,49685.13
2023-04-15T19:47:16.572Z,49697.09
2023-04-15T19:49:43.494Z,49711.06
2023-04-15T19:52:10.228Z,49731.00
2023-04-15T19:54:37.150Z,49683.16
2023-04-15T19:57:04.218Z,49695.09
2023-04-15T19:59:31.057Z,49657.22
2023-04-15T20:01:57.786Z,49675.19
2023-04-15T20:04:24.853Z,49697.09
2023-04-15T20:06:51.837Z,49705.06
2023-04-15T20:09:18.582Z,49723.03
2023-04-15T20:12:46.058Z,49695.09
2023-04-15T20:14:32.049Z,49715.03
2023-04-15T20:16:58.703Z,49683.16
2023-04-15T20:19:25.576Z,49707.06
2023-04-15T20:21:53.987Z,49723.03
2023-04-15T20:24:21.522Z,49738.97
2023-04-15T20:26:48.199Z,49695.09
2023-04-15T20:29:14.952Z,49731.00
2023-04-15T20:31:41.974Z,49689.13
2023-04-15T20:34:11.825Z,49689.13
2023-04-15T20:36:38.858Z,49709.06
2023-04-15T20:39:05.751Z,49701.09
2023-04-15T20:41:32.607Z,49691.13
2023-04-15T20:43:59.270Z,49746.94
2023-04-15T20:46:27.293Z,49673.19
2023-04-15T20:48:54.681Z,49687.13
2023-04-15T20:51:21.363Z,49691.13
2023-04-15T20:53:48.215Z,49689.13
2023-04-15T20:56:14.886Z,49687.13
2023-04-15T20:58:41.553Z,49723.03
2023-04-15T21:01:08.296Z,49689.13
2023-04-15T21:03:35.102Z,49729.00
2023-04-15T21:06:01.911Z,49695.09
2023-04-15T21:08:31.674Z,49709.06
2023-04-15T21:10:58.444Z,49719.03
2023-04-15T21:13:25.269Z,49693.13
2023-04-15T21:15:54.143Z,49731.00
2023-04-15T21:18:22.299Z,49709.06
2023-04-15T21:20:58.929Z,49699.09
2023-04-15T21:23:26.263Z,49683.16
2023-04-15T21:25:52.989Z,49677.16
2023-04-15T21:28:19.786Z,49738.97
2023-04-15T21:30:47.176Z,49709.06
2023-04-15T21:33:13.842Z,49687.13
2023-04-15T21:35:40.535Z,49731.00
2023-04-15T21:38:07.691Z,49703.09
2023-04-15T21:40:34.587Z,49736.97
2023-04-15T21:43:01.212Z,49727.00
2023-04-15T21:45:27.935Z,49734.97
2023-04-15T21:48:04.939Z,49721.03
2023-04-15T21:50:35.745Z,49711.06
2023-04-15T21:53:03.671Z,49693.13
2023-04-15T21:55:30.248Z,49723.03
2023-04-15T21:57:56.996Z,49742.94
2023-04-15T22:00:24.261Z,49689.13
2023-04-15T22:02:51.578Z,49727.00
2023-04-15T22:05:18.475Z,49711.06
2023-04-15T22:07:45.555Z,49713.06
2023-04-15T22:10:12.240Z,49731.00
2023-04-15T22:12:41.855Z,49760.91
2023-04-15T22:15:08.980Z,49707.06
2023-04-15T22:17:35.704Z,49731.00
2023-04-15T22:20:03.711Z,49740.97
2023-04-15T22:22:43.375Z,49727.00
2023-04-15T22:25:12.379Z,49703.09
2023-04-15T22:27:39.074Z,49707.06
2023-04-15T22:30:06.453Z,49713.06
2023-04-15T22:32:33.190Z,49727.00
2023-04-15T22:35:00.157Z,49733.00
2023-04-15T22:37:30.460Z,49742.94
2023-04-15T22:39:57.546Z,49723.03
2023-04-15T22:42:24.352Z,49746.94
2023-04-15T22:44:51.394Z,49719.03
2023-04-15T22:47:19.037Z,49790.81
2023-04-15T22:49:46.049Z,49729.00
2023-04-15T22:52:23.468Z,49734.97
2023-04-15T22:54:56.600Z,49723.03
2023-04-15T22:57:23.274Z,49734.97
2023-04-15T22:59:49.977Z,49691.13
2023-04-15T23:02:16.905Z,49738.97
2023-04-15T23:04:43.786Z,49715.03
2023-04-15T23:07:11.163Z,49736.97
2023-04-15T23:09:38.787Z,49727.00
2023-04-15T23:12:06.134Z,49746.94
2023-04-15T23:14:32.774Z,49711.06
2023-04-15T23:16:59.504Z,49709.06
2023-04-15T23:19:26.161Z,49715.03
2023-04-15T23:21:53.527Z,49693.13
2023-04-15T23:24:20.217Z,49746.94
2023-04-15T23:26:47.002Z,49727.00
2023-04-15T23:29:14.150Z,49729.00
2023-04-15T23:31:41.768Z,49742.94
2023-04-15T23:34:08.530Z,49750.94
2023-04-15T23:36:35.243Z,49750.94
2023-04-15T23:39:01.969Z,49715.03
2023-04-15T23:41:28.751Z,49752.91
2023-04-15T23:43:55.445Z,49734.97
2023-04-15T23:46:22.123Z,49723.03
2023-04-15T23:48:49.138Z,49717.03
2023-04-15T23:51:16.550Z,49742.94
2023-04-15T23:53:43.240Z,49731.00
2023-04-15T23:56:10.063Z,49705.06
2023-04-15T23:58:36.750Z,49715.03
